Cairns, Queensland

10:07 AM AEST on August 31, 2016 (GMT +1000)
| | Change Station

Elev -9999 ft 0.00 °N, 0.00 °E | Updated

Partly Cloudy
Partly Cloudy
80 °F
Feels Like 83 °F
N
16
Wind Variable Wind from ESE
Gusts 21 mph

Today
High -- | Low -- °F
--% Chance of Precip.
Yesterday
High -- | Low -- °F
Precip. -- in
Pressure 30.12 in
Visibility 6.2 miles
Clouds Few 2500 ft
Mostly Cloudy 5500 ft
Heat Index 83 °F
Dew Point 66 °F
Humidity 63%
Rainfall --
Snow Depth Not available.
6:24 AM 6:10 PM
Waning Crescent, 2% visible
METAR YBCS 310000Z 18009KT 9999 FEW025 BKN055 23/18 Q1020 NOSIG
Pressure 30.12 in
Visibility 6.2 miles
Clouds Few 2500 ft
Mostly Cloudy 5500 ft
Heat Index 83 °F
Dew Point 66 °F
Humidity 63%
Rainfall --
Snow Depth Not available.
6:24 AM 6:10 PM
Waning Crescent, 2% visible
METAR YBCS 310000Z 18009KT 9999 FEW025 BKN055 23/18 Q1020 NOSIG

10-Day Weather Forecast

Almanac

Astronomy

Aug. 31, 2016 Rise Set
Actual Time
Civil Twilight
Nautical Twilight
Astronomical Twilight
Moon
Length of Visible Light
Length of Day
Tomorrow will be .
, % of the Moon is Illuminated

Today's Extremes

Country Highs Country Lows

Community

WunderPhotos

Upload Photos

1,935,958 photos uploaded!

WunderBlog® & News

Nearby

Air Quality

  Air Quality AQ Index Pollutant
Not available.

Snow Depth

Station Depth Elevation

Earthquake Activity

City Distance Mag. Time & Date
Minimum magnitude displayed is 2.5.

Coastal Water Temperatures

Place Temperature

Stations

Nearby Weather Stations

Station Location Temp. Windchill Dew Point Humidity Wind Precip. Elev Updated Type